Ana Sayfa
METAR-TAF:

METAR-TAF

Havaalanları :

Tulça, Romanya

Enlem: 45-11N, Boylam: 028-49E, yükseklik: 4 m

Güncel hava durumu gözlemi

Rapor saat 05:00 UTC de 39 dakika önce yapıldı.
Rüzgar doğu/kuzeydoğudan 6 kt
Sıcaklık 12°C
Nem 82%
Basınç 1022 hPa
Görüş mesafesi 10 km veya daha fazla

METAR: LRTC 180500Z AUTO 06006KT 9999 SCT021/// OVC025/// 12/09 Q1022

Saat: 07:39 (05:39 UTC)

Tahmin

Rapor saat 05:00 UTC de 39 dakika önce yapıldı.
Ayın 17'si saat 06 UTC'den ayın 17'si saat 15 UTC'ye kadar geçerli Tahmin
Rüzgar doğudan 8 kt
Görüş mesafesi 10 km veya daha fazla
1500 ft yükseklikte parçalı çok bulutlu
Dönüşüyor
ayın 17'si saat 07 UTC'den ayın 17'si saat 09 UTC'ye kadar
2000 ft yükseklikte parçalı çok bulutlu

TAF: LRTC 170500Z 1706/1715 08008KT 9999 BKN015 BECMG 1707/1709 BKN020

4.000'den fazla havaalanı için hava durumu gözlemleri ve tahminleri (METAR ve TAF raporları).

Kullanılabilir istasyonlar harita üzerinde sarı ve kırmızı noktalarla gösterilir.

İstasyonun adını görmek için fareyi noktanın üzerinde gezdirin.

Sonrasında hava gözlem ve tahminlerini görmek için tıklayın.

Haritayı değiştirmek için: yaklaştırmak için siyah artı işaretli yeşil düğmeye ve uzaklaştırmak için de eksi işaretli düğmeye hızla tıklayın; bitişik haritalar için yeşil okları kullanın.


METAR-TAF: